Time;durP1;ratioP1;P1;durP2;ratioP2;P2;SDS_P1;SDS_P2;PMS_P1;PMS_P2;Temp;Humidity;BMP_temperature;BMP_pressure;BME280_temperature;BME280_humidity;BME280_pressure;Samples;Min_cycle;Max_cycle;Signal;HPM_P1;HPM_P2
2023/04/15 00:00:47;;;;;;;9.73;4.25;;;;;;;1.45;100.00;100976.75;4979983;28;20050;-78
2023/04/15 00:03:12;;;;;;;6.55;3.67;;;;;;;1.30;100.00;100976.91;5011965;28;20108;-76
2023/04/15 00:05:38;;;;;;;12.45;3.75;;;;;;;1.13;100.00;100974.59;5012295;28;20042;-76
2023/04/15 00:08:06;;;;;;;11.40;3.42;;;;;;;1.01;100.00;100986.94;5012328;28;20030;-78
2023/04/15 00:10:37;;;;;;;7.90;2.80;;;;;;;0.95;100.00;100984.69;5012926;28;20109;-76
2023/04/15 00:13:03;;;;;;;9.50;3.42;;;;;;;0.90;100.00;100985.97;4982004;28;20467;-78
2023/04/15 00:15:28;;;;;;;8.73;4.22;;;;;;;0.80;100.00;100989.28;4999209;28;20129;-77
2023/04/15 00:17:56;;;;;;;7.53;2.53;;;;;;;0.76;100.00;100990.44;5015501;28;20220;-77
2023/04/15 00:20:28;;;;;;;8.80;3.25;;;;;;;0.84;100.00;100998.69;5015768;28;20030;-76
2023/04/15 00:22:53;;;;;;;6.75;3.13;;;;;;;0.75;100.00;100996.69;5015764;28;20072;-77
2023/04/15 00:25:19;;;;;;;8.23;3.03;;;;;;;0.76;100.00;101003.69;5016495;28;20038;-79
2023/04/15 00:27:46;;;;;;;3.20;1.92;;;;;;;0.85;100.00;101010.16;4982898;28;20032;-77
2023/04/15 00:30:12;;;;;;;8.55;3.15;;;;;;;0.92;100.00;101010.56;5015576;28;20080;-77
2023/04/15 00:32:41;;;;;;;9.77;3.97;;;;;;;0.92;100.00;101011.41;5015066;28;20528;-77
2023/04/15 00:35:11;;;;;;;7.13;2.70;;;;;;;0.78;100.00;101014.16;5015315;28;20037;-77
2023/04/15 00:37:37;;;;;;;10.68;2.75;;;;;;;0.74;100.00;101017.97;5015208;28;20033;-77
2023/04/15 00:40:05;;;;;;;13.15;4.55;;;;;;;0.71;100.00;101029.59;4982616;28;20030;-77
2023/04/15 00:42:38;;;;;;;8.45;3.42;;;;;;;0.62;100.00;101011.72;4999325;28;20034;-77
2023/04/15 00:45:07;;;;;;;7.05;3.22;;;;;;;0.67;100.00;101027.31;4966472;28;20030;-77
2023/04/15 00:47:34;;;;;;;8.98;3.15;;;;;;;0.54;100.00;101024.66;4982909;28;20036;-76
2023/04/15 00:50:02;;;;;;;8.00;2.92;;;;;;;0.40;100.00;101015.00;4982747;28;20029;-77
2023/04/15 00:52:35;;;;;;;6.85;3.03;;;;;;;0.43;100.00;101018.28;4999332;28;20040;-76
2023/04/15 00:55:06;;;;;;;10.45;3.38;;;;;;;0.31;100.00;101000.59;5014863;28;20048;-77
2023/04/15 00:57:32;;;;;;;11.07;2.90;;;;;;;0.21;100.00;101010.09;5014601;28;20022;-76
2023/04/15 01:00:00;;;;;;;7.07;2.65;;;;;;;0.09;100.00;101000.34;5014625;28;20041;-77
2023/04/15 01:02:26;;;;;;;6.60;2.60;;;;;;;0.19;100.00;101012.00;4982342;28;20439;-77
2023/04/15 01:04:51;;;;;;;7.40;2.72;;;;;;;0.23;100.00;101021.41;5014476;28;20120;-76
2023/04/15 01:07:17;;;;;;;10.02;2.53;;;;;;;0.18;100.00;101010.28;5014682;28;20437;-76
2023/04/15 01:09:43;;;;;;;5.15;2.67;;;;;;;0.06;100.00;101011.13;4998658;28;20088;-76
2023/04/15 01:12:11;;;;;;;3.88;2.10;;;;;;;-0.06;100.00;101021.53;5014282;28;20038;-76
2023/04/15 01:14:39;;;;;;;4.15;2.17;;;;;;;-0.17;100.00;101015.28;5014584;28;20040;-76
2023/04/15 01:17:07;;;;;;;4.38;2.20;;;;;;;-0.23;100.00;101024.47;4998501;28;20420;-76
2023/04/15 01:19:37;;;;;;;3.50;1.83;;;;;;;-0.30;100.00;101009.94;4981310;28;20061;-77
2023/04/15 01:22:04;;;;;;;8.02;3.05;;;;;;;-0.27;100.00;101028.25;4998373;28;20096;-76
2023/04/15 01:24:34;;;;;;;4.47;2.15;;;;;;;-0.32;100.00;101035.63;4997717;28;20034;-76
2023/04/15 01:27:03;;;;;;;7.38;2.03;;;;;;;-0.50;100.00;101020.03;4997926;28;20038;-77
2023/04/15 01:29:48;;;;;;;2.92;1.90;;;;;;;-0.43;100.00;101006.41;4999483;28;20186;-76
2023/04/15 01:32:14;;;;;;;3.10;1.55;;;;;;;-0.19;100.00;101033.88;5015058;28;20057;-76
2023/04/15 01:34:58;;;;;;;2.63;1.55;;;;;;;-0.31;100.00;101034.69;5000494;28;20392;-80
2023/04/15 01:37:45;;;;;;;2.80;1.30;;;;;;;-0.39;100.00;101031.69;5014309;28;20041;-76
2023/04/15 01:40:18;;;;;;;3.35;1.50;;;;;;;-0.52;100.00;101032.47;4998050;28;20121;-76
2023/04/15 01:42:45;;;;;;;5.03;1.40;;;;;;;-0.64;100.00;101005.97;5013762;28;20034;-77
2023/04/15 01:45:12;;;;;;;7.65;1.98;;;;;;;-0.69;100.00;101004.50;4980885;28;20044;-80
2023/04/15 01:47:39;;;;;;;7.50;1.92;;;;;;;-0.54;100.00;101018.50;4997232;28;20045;-76
2023/04/15 01:50:07;;;;;;;3.08;1.67;;;;;;;-0.40;100.00;101040.53;5014904;28;20044;-76
2023/04/15 01:52:34;;;;;;;1.92;1.50;;;;;;;-0.39;100.00;101044.91;5013616;28;20059;-76
2023/04/15 01:55:05;;;;;;;2.50;1.23;;;;;;;-0.39;100.00;101044.91;5013509;28;20038;-76
2023/04/15 01:57:32;;;;;;;4.55;1.58;;;;;;;-0.58;100.00;101032.88;5013307;28;20042;-76
2023/04/15 02:00:03;;;;;;;7.78;1.73;;;;;;;-0.61;100.00;101042.75;5013370;28;20037;-76
2023/04/15 02:02:35;;;;;;;4.70;1.50;;;;;;;-0.65;100.00;101042.13;4997037;28;20476;-76
2023/04/15 02:05:04;;;;;;;2.25;1.48;;;;;;;-0.70;100.00;101044.19;4997461;28;20036;-76
2023/04/15 02:07:31;;;;;;;2.35;1.73;;;;;;;-0.64;100.00;101053.53;5012845;28;20484;-77
2023/04/15 02:09:58;;;;;;;2.35;1.55;;;;;;;-0.70;100.00;101050.31;5014430;28;20041;-76
2023/04/15 02:12:24;;;;;;;2.50;1.45;;;;;;;-0.72;100.00;101049.56;5012923;28;20033;-76
2023/04/15 02:14:52;;;;;;;3.88;1.45;;;;;;;-0.67;100.00;101057.19;4996929;28;20056;-77
2023/04/15 02:17:19;;;;;;;2.75;1.70;;;;;;;-0.74;100.00;101043.56;5013107;28;20044;-76
2023/04/15 02:19:45;;;;;;;2.42;1.55;;;;;;;-0.65;100.00;101052.69;5012618;28;20036;-76
2023/04/15 02:22:17;;;;;;;2.13;1.17;;;;;;;-0.70;100.00;101066.16;5014245;28;20041;-76
2023/04/15 02:24:45;;;;;;;3.53;1.33;;;;;;;-0.81;100.00;101060.72;5013048;28;20033;-76
2023/04/15 02:27:18;;;;;;;3.67;1.40;;;;;;;-0.90;100.00;101066.53;5012160;28;20029;-76
2023/04/15 02:29:49;;;;;;;2.75;1.13;;;;;;;-0.97;100.00;101065.25;5014254;28;20026;-76
2023/04/15 02:32:19;;;;;;;3.10;1.20;;;;;;;-1.07;100.00;101046.47;5014061;28;20037;-76
2023/04/15 02:34:51;;;;;;;2.20;1.60;;;;;;;-1.02;100.00;101054.97;4996213;28;20037;-77
2023/04/15 02:37:23;;;;;;;2.42;1.40;;;;;;;-0.94;100.00;101044.78;4996041;28;20036;-76
2023/04/15 02:39:50;;;;;;;5.60;1.27;;;;;;;-0.88;100.00;101049.66;4995474;28;20029;-78
2023/04/15 02:42:17;;;;;;;2.67;1.40;;;;;;;-0.89;100.00;101045.34;5012416;28;20042;-79
2023/04/15 02:44:46;;;;;;;2.28;1.58;;;;;;;-0.92;100.00;101056.09;4996413;28;20029;-76
2023/04/15 02:47:15;;;;;;;2.22;1.58;;;;;;;-1.01;100.00;101048.72;4996480;28;20036;-79
2023/04/15 02:49:42;;;;;;;2.03;1.45;;;;;;;-1.12;100.00;101040.63;5013134;28;20033;-76
2023/04/15 02:52:09;;;;;;;4.47;1.63;;;;;;;-1.05;100.00;101085.97;4996283;28;20036;-76
2023/04/15 02:54:41;;;;;;;1.10;0.98;;;;;;;-1.15;100.00;101083.03;5012421;28;20369;-77
2023/04/15 02:57:11;;;;;;;6.68;1.50;;;;;;;-1.14;100.00;101071.53;4995594;28;20030;-76
2023/04/15 02:59:38;;;;;;;1.23;1.02;;;;;;;-1.12;100.00;101080.22;4996628;28;20042;-76
2023/04/15 03:02:08;;;;;;;2.53;1.33;;;;;;;-1.12;100.00;101081.06;4995684;28;20477;-77
2023/04/15 03:04:34;;;;;;;5.25;1.50;;;;;;;-1.04;100.00;101077.94;4995951;28;20044;-76
2023/04/15 03:07:05;;;;;;;1.67;1.27;;;;;;;-1.07;100.00;101086.06;4996000;28;20041;-76
2023/04/15 03:09:33;;;;;;;2.20;1.23;;;;;;;-1.06;100.00;101093.03;5012388;28;20076;-76
2023/04/15 03:12:01;;;;;;;4.40;1.50;;;;;;;-1.08;100.00;101105.50;5011148;28;20029;-76
2023/04/15 03:14:33;;;;;;;2.00;1.40;;;;;;;-1.11;100.00;101106.53;4995926;28;20113;-76
2023/04/15 03:17:00;;;;;;;3.08;1.13;;;;;;;-1.21;100.00;101100.09;5013433;28;20034;-76
2023/04/15 03:19:26;;;;;;;1.08;0.90;;;;;;;-1.30;100.00;101094.50;5012552;28;20041;-78
2023/04/15 03:21:53;;;;;;;3.65;1.40;;;;;;;-1.23;100.00;101106.41;5011970;28;20034;-76
2023/04/15 03:24:20;;;;;;;2.83;1.70;;;;;;;-1.27;100.00;101112.78;4995833;28;20030;-76
2023/04/15 03:26:50;;;;;;;1.38;1.05;;;;;;;-1.33;100.00;101116.63;4995860;28;20480;-79
2023/04/15 03:29:17;;;;;;;4.97;1.10;;;;;;;-1.37;100.00;101108.06;4996299;28;20036;-77
2023/04/15 03:31:47;;;;;;;5.00;0.75;;;;;;;-1.23;100.00;101104.59;4995271;28;20038;-79
2023/04/15 03:34:17;;;;;;;2.40;1.73;;;;;;;-1.12;100.00;101106.59;5012030;28;20391;-78
2023/04/15 03:36:45;;;;;;;5.38;0.93;;;;;;;-1.09;100.00;101098.50;5011995;28;20033;-78
2023/04/15 03:39:12;;;;;;;2.80;1.35;;;;;;;-1.05;100.00;101099.19;5011074;28;20391;-78
2023/04/15 03:41:44;;;;;;;3.55;1.58;;;;;;;-0.96;100.00;101123.19;5011824;28;20038;-77
2023/04/15 03:44:11;;;;;;;2.38;1.40;;;;;;;-0.93;100.00;101127.44;5013202;28;20494;-77
2023/04/15 03:46:38;;;;;;;1.58;1.00;;;;;;;-0.94;100.00;101126.59;4994686;28;20447;-79
2023/04/15 03:49:08;;;;;;;3.30;1.35;;;;;;;-1.02;100.00;101131.50;5015701;28;20487;-78
2023/04/15 03:51:35;;;;;;;1.48;1.10;;;;;;;-1.11;100.00;101129.44;4999291;28;20044;-77
2023/04/15 03:54:05;;;;;;;7.43;1.70;;;;;;;-1.21;100.00;101128.28;5016871;28;20036;-77
2023/04/15 03:56:32;;;;;;;1.60;1.20;;;;;;;-1.27;100.00;101118.94;5015737;28;20064;-78
2023/04/15 03:59:01;;;;;;;1.83;1.15;;;;;;;-1.31;100.00;101135.88;5016659;28;20032;-78
2023/04/15 04:01:28;;;;;;;2.30;0.93;;;;;;;-1.37;100.00;101134.44;4999159;28;20048;-78
2023/04/15 04:03:58;;;;;;;0.88;0.88;;;;;;;-1.58;100.00;101101.41;5016790;28;20040;-78
2023/04/15 04:06:25;;;;;;;1.30;1.15;;;;;;;-1.44;100.00;101132.25;5016278;28;20498;-79
2023/04/15 04:08:55;;;;;;;1.98;1.20;;;;;;;-1.55;100.00;101136.34;4999444;28;20476;-77
2023/04/15 04:11:22;;;;;;;2.20;1.17;;;;;;;-1.60;100.00;101135.78;5016646;28;20034;-78
2023/04/15 04:13:49;;;;;;;3.05;1.48;;;;;;;-1.72;100.00;101112.78;4998852;28;20052;-77
2023/04/15 04:16:24;;;;;;;2.17;1.25;;;;;;;-1.59;100.00;101123.44;5015380;28;20025;-78
2023/04/15 04:18:51;;;;;;;2.13;1.30;;;;;;;-1.71;100.00;101113.63;5015554;28;20387;-78
2023/04/15 04:21:20;;;;;;;1.85;1.00;;;;;;;-1.72;100.00;101119.81;4998507;28;20026;-77
2023/04/15 04:23:47;;;;;;;3.03;1.23;;;;;;;-1.79;100.00;101119.31;4999386;28;20041;-77
2023/04/15 04:26:19;;;;;;;2.45;1.40;;;;;;;-1.80;100.00;101110.56;4998668;28;20046;-77
2023/04/15 04:28:49;;;;;;;1.25;0.73;;;;;;;-1.78;100.00;101116.56;5016462;28;20040;-78
2023/04/15 04:31:19;;;;;;;1.38;0.85;;;;;;;-1.71;100.00;101118.88;5016330;28;20069;-77
2023/04/15 04:33:50;;;;;;;1.52;1.10;;;;;;;-1.74;100.00;101134.88;5014966;28;20033;-78
2023/04/15 04:36:22;;;;;;;2.78;1.17;;;;;;;-1.85;100.00;101127.59;5015024;28;20034;-77
2023/04/15 04:38:49;;;;;;;1.40;1.23;;;;;;;-1.92;100.00;101128.88;5014999;28;20038;-77
2023/04/15 04:41:17;;;;;;;1.08;1.00;;;;;;;-1.95;100.00;101126.41;5014990;28;20026;-78
2023/04/15 04:43:46;;;;;;;4.55;1.30;;;;;;;-1.82;100.00;101146.69;5016088;28;20468;-78
2023/04/15 04:46:16;;;;;;;2.35;1.40;;;;;;;-1.72;100.00;101143.53;5014693;28;20067;-77
2023/04/15 04:48:43;;;;;;;2.20;1.50;;;;;;;-1.61;100.00;101156.97;4998455;28;20040;-78
2023/04/15 04:51:10;;;;;;;3.42;1.30;;;;;;;-1.61;100.00;101164.88;5014862;28;20037;-78
2023/04/15 04:53:41;;;;;;;2.13;1.45;;;;;;;-1.70;100.00;101154.84;5014824;28;20030;-79
2023/04/15 04:56:08;;;;;;;1.80;1.30;;;;;;;-1.65;100.00;101165.97;5014556;28;20030;-78
2023/04/15 04:58:37;;;;;;;3.17;1.90;;;;;;;-1.78;100.00;101166.66;5013616;28;20498;-78
2023/04/15 05:01:07;;;;;;;4.22;1.45;;;;;;;-1.87;100.00;101172.47;5015633;28;20042;-78
2023/04/15 05:03:38;;;;;;;2.40;1.60;;;;;;;-2.01;100.00;101169.75;5014409;28;20048;-78
2023/04/15 05:06:06;;;;;;;1.95;1.10;;;;;;;-2.19;100.00;101142.63;5014397;28;20046;-77
2023/04/15 05:08:33;;;;;;;5.43;1.50;;;;;;;-2.16;100.00;101146.88;5015578;28;20381;-78
2023/04/15 05:11:02;;;;;;;2.35;1.33;;;;;;;-1.96;100.00;101177.38;5014270;28;20034;-76
2023/04/15 05:13:31;;;;;;;3.72;1.58;;;;;;;-1.93;100.00;101183.38;5014562;28;20041;-78
2023/04/15 05:15:58;;;;;;;3.10;1.92;;;;;;;-1.86;100.00;101182.06;4997641;28;20384;-78
2023/04/15 05:18:25;;;;;;;1.48;1.13;;;;;;;-1.87;100.00;101177.75;5014224;28;20037;-77
2023/04/15 05:20:55;;;;;;;2.22;1.30;;;;;;;-1.85;100.00;101180.31;5013660;28;20044;-78
2023/04/15 05:23:22;;;;;;;3.00;1.55;;;;;;;-1.90;100.00;101172.66;4998281;28;20029;-76
2023/04/15 05:25:52;;;;;;;2.42;1.98;;;;;;;-1.91;100.00;101186.75;4998211;28;20048;-78
2023/04/15 05:28:19;;;;;;;1.52;0.75;;;;;;;-1.84;100.00;101189.91;5014998;28;20048;-77
2023/04/15 05:30:45;;;;;;;3.25;1.80;;;;;;;-1.83;100.00;101171.34;5013898;28;20037;-77
2023/04/15 05:33:12;;;;;;;3.40;1.60;;;;;;;-1.34;100.00;101194.94;4997183;28;20032;-77
2023/04/15 05:35:41;;;;;;;2.40;1.70;;;;;;;-1.01;100.00;101199.16;5013691;28;20044;-77
2023/04/15 05:38:08;;;;;;;2.88;1.35;;;;;;;-0.92;100.00;101198.66;4997327;28;20038;-77
2023/04/15 05:40:37;;;;;;;1.88;1.15;;;;;;;-0.89;100.00;101206.38;5014825;28;20077;-77
2023/04/15 05:43:07;;;;;;;1.42;1.17;;;;;;;-0.91;100.00;101207.41;4997574;28;20028;-77
2023/04/15 05:45:33;;;;;;;3.85;1.38;;;;;;;-0.99;100.00;101205.22;5013380;28;20030;-77
2023/04/15 05:48:08;;;;;;;3.55;1.45;;;;;;;-0.99;100.00;101213.13;4997286;28;20046;-75
2023/04/15 05:50:35;;;;;;;2.20;1.48;;;;;;;-1.02;100.00;101213.31;4997560;28;20030;-77
2023/04/15 05:53:01;;;;;;;2.88;1.25;;;;;;;-0.98;100.00;101224.53;4997401;28;20037;-77
2023/04/15 05:55:30;;;;;;;2.90;0.95;;;;;;;-0.83;100.00;101238.63;5013424;28;20388;-77
2023/04/15 05:58:00;;;;;;;1.85;1.25;;;;;;;-0.81;100.00;101218.28;5013428;28;20468;-77
2023/04/15 06:00:30;;;;;;;2.55;1.58;;;;;;;-0.64;100.00;101228.66;5013154;28;20040;-77
2023/04/15 06:02:59;;;;;;;2.25;1.40;;;;;;;-0.45;100.00;101236.31;5013476;28;20040;-77
2023/04/15 06:05:29;;;;;;;2.10;1.42;;;;;;;-0.30;100.00;101238.03;4997330;28;20038;-78
2023/04/15 06:07:58;;;;;;;2.63;1.52;;;;;;;-0.02;100.00;101253.03;5014563;28;20500;-77
2023/04/15 06:10:27;;;;;;;1.42;1.23;;;;;;;0.16;100.00;101251.06;5012732;28;20046;-77
2023/04/15 06:12:54;;;;;;;2.40;1.70;;;;;;;0.30;100.00;101244.03;4997002;28;20498;-76
2023/04/15 06:15:21;;;;;;;2.70;1.70;;;;;;;0.41;100.00;101252.97;5013020;28;20041;-78
2023/04/15 06:17:48;;;;;;;2.97;1.63;;;;;;;0.57;100.00;101252.84;4996097;28;20032;-78
2023/04/15 06:20:15;;;;;;;3.20;1.48;;;;;;;0.90;100.00;101250.72;5013146;28;20491;-77
2023/04/15 06:22:42;;;;;;;6.65;2.08;;;;;;;1.35;100.00;101243.31;4995332;28;20113;-77
2023/04/15 06:25:09;;;;;;;4.15;1.90;;;;;;;1.74;100.00;101258.25;5012879;28;20048;-79
2023/04/15 06:27:36;;;;;;;2.03;1.42;;;;;;;1.73;100.00;101260.06;5012653;28;20469;-77
2023/04/15 06:30:04;;;;;;;2.15;1.33;;;;;;;1.94;100.00;101257.72;4995703;28;20044;-77
2023/04/15 06:32:31;;;;;;;3.83;1.90;;;;;;;2.51;100.00;101258.97;5012831;28;20056;-77
2023/04/15 06:34:58;;;;;;;4.40;1.60;;;;;;;2.86;100.00;101263.53;5011762;28;20033;-78
2023/04/15 06:37:26;;;;;;;2.55;1.65;;;;;;;3.07;100.00;101269.06;4996541;28;20069;-79
2023/04/15 06:39:53;;;;;;;5.13;2.00;;;;;;;3.25;100.00;101264.16;5012488;28;20397;-79
2023/04/15 06:42:20;;;;;;;3.15;1.65;;;;;;;3.55;100.00;101276.06;5012722;28;20065;-78
2023/04/15 06:44:50;;;;;;;4.45;1.50;;;;;;;4.00;100.00;101282.31;5012601;28;20033;-78
2023/04/15 06:47:18;;;;;;;2.70;1.50;;;;;;;4.35;100.00;101283.97;5012520;28;20034;-78
2023/04/15 06:49:45;;;;;;;6.63;1.98;;;;;;;4.91;100.00;101301.66;5012450;28;20037;-79
2023/04/15 06:52:15;;;;;;;4.78;1.80;;;;;;;5.70;100.00;101292.31;5012642;28;20025;-79
2023/04/15 06:54:42;;;;;;;5.68;1.70;;;;;;;6.16;100.00;101298.22;5012599;28;20030;-77
2023/04/15 06:57:09;;;;;;;2.78;1.67;;;;;;;5.99;100.00;101289.00;5012460;28;20387;-78
2023/04/15 06:59:36;;;;;;;2.17;1.48;;;;;;;5.79;100.00;101304.03;4996207;28;20030;-79
2023/04/15 07:02:03;;;;;;;3.70;1.63;;;;;;;5.64;100.00;101303.53;5012422;28;20030;-78
2023/04/15 07:04:31;;;;;;;4.85;1.92;;;;;;;5.64;100.00;101297.34;5012179;28;20034;-77
2023/04/15 07:06:59;;;;;;;4.32;1.67;;;;;;;5.76;100.00;101298.97;4995977;28;20049;-78
2023/04/15 07:09:27;;;;;;;3.20;1.38;;;;;;;6.19;100.00;101297.09;5012352;28;20038;-77
2023/04/15 07:11:56;;;;;;;4.00;1.50;;;;;;;6.87;100.00;101297.31;5012513;28;20042;-76
2023/04/15 07:14:23;;;;;;;5.05;1.60;;;;;;;7.39;100.00;101304.09;4996236;28;20042;-79
2023/04/15 07:16:53;;;;;;;6.93;2.00;;;;;;;7.67;100.00;101314.88;5012025;28;20048;-80
2023/04/15 07:19:23;;;;;;;1.83;1.40;;;;;;;7.97;100.00;101311.19;5012360;28;20030;-78
2023/04/15 07:21:56;;;;;;;3.90;1.75;;;;;;;8.36;100.00;101317.25;5014624;28;20036;-81
2023/04/15 07:24:25;;;;;;;3.70;1.70;;;;;;;9.08;100.00;101320.09;5018867;28;20055;-79
2023/04/15 07:26:58;;;;;;;2.80;1.58;;;;;;;9.81;100.00;101317.19;5017980;28;20113;-77
2023/04/15 07:29:47;;;;;;;4.25;1.67;;;;;;;10.05;100.00;101321.03;5019596;28;20044;-76
2023/04/15 07:32:15;;;;;;;4.93;1.90;;;;;;;9.88;100.00;101325.47;5018621;28;20030;-79
2023/04/15 07:34:42;;;;;;;4.57;1.65;;;;;;;9.96;100.00;101322.84;5018595;28;20045;-80
2023/04/15 07:37:09;;;;;;;3.10;1.80;;;;;;;10.18;100.00;101334.88;5018050;28;20040;-77
2023/04/15 07:39:41;;;;;;;5.18;1.95;;;;;;;10.55;100.00;101333.75;5018525;28;20042;-77
2023/04/15 07:42:08;;;;;;;3.15;1.50;;;;;;;10.81;100.00;101336.38;5017993;28;20034;-76
2023/04/15 07:44:37;;;;;;;4.13;2.25;;;;;;;11.20;100.00;101339.34;5018261;28;20036;-77
2023/04/15 07:47:04;;;;;;;5.30;2.35;;;;;;;11.67;100.00;101337.88;5002300;28;20034;-80
2023/04/15 07:49:36;;;;;;;7.13;2.08;;;;;;;11.81;100.00;101342.56;5018728;28;20055;-78
2023/04/15 07:52:03;;;;;;;4.05;2.10;;;;;;;11.85;100.00;101335.84;5019585;28;20038;-79
2023/04/15 07:54:32;;;;;;;3.15;2.00;;;;;;;11.87;100.00;101323.06;5017992;28;20034;-80
2023/04/15 07:57:10;;;;;;;3.90;2.13;;;;;;;12.09;100.00;101347.63;5018306;28;20026;-78
2023/04/15 07:59:36;;;;;;;6.72;3.45;;;;;;;12.02;100.00;101339.38;5017845;28;20029;-78
2023/04/15 08:02:03;;;;;;;3.70;2.45;;;;;;;12.14;100.00;101345.25;5018199;28;20050;-78
2023/04/15 08:04:33;;;;;;;4.68;1.88;;;;;;;12.45;100.00;101352.59;5001870;28;20029;-81
2023/04/15 08:06:59;;;;;;;5.32;2.75;;;;;;;12.42;100.00;101352.94;5002043;28;20041;-77
2023/04/15 08:09:26;;;;;;;9.68;4.47;;;;;;;12.13;100.00;101346.28;5018281;28;20046;-77
2023/04/15 08:11:58;;;;;;;5.00;2.67;;;;;;;11.88;100.00;101351.69;5017970;28;20048;-77
2023/04/15 08:14:25;;;;;;;5.03;2.35;;;;;;;11.74;100.00;101348.81;5017937;28;20468;-78
2023/04/15 08:16:52;;;;;;;3.38;1.67;;;;;;;11.72;100.00;101350.81;5016292;28;20048;-79
2023/04/15 08:19:20;;;;;;;2.47;1.55;;;;;;;11.47;100.00;101339.22;5016182;28;20476;-77
2023/04/15 08:21:46;;;;;;;3.63;1.65;;;;;;;11.22;100.00;101340.03;5017343;28;20026;-76
2023/04/15 08:24:14;;;;;;;5.13;1.80;;;;;;;10.98;100.00;101335.44;5016331;28;20048;-78
2023/04/15 08:26:41;;;;;;;4.65;2.80;;;;;;;10.80;100.00;101329.34;5016328;28;20040;-80
2023/04/15 08:29:08;;;;;;;4.05;2.83;;;;;;;11.05;100.00;101342.84;5017484;28;20048;-78
2023/04/15 08:31:38;;;;;;;3.50;2.25;;;;;;;11.13;100.00;101342.88;5016732;28;20152;-77
2023/04/15 08:34:04;;;;;;;4.50;3.00;;;;;;;11.23;100.00;101343.56;5001085;28;20044;-78
2023/04/15 08:36:31;;;;;;;1.75;1.40;;;;;;;11.44;100.00;101348.47;5014906;28;20030;-77
2023/04/15 08:39:00;;;;;;;4.07;1.60;;;;;;;11.51;100.00;101351.31;5014882;28;20026;-78
2023/04/15 08:41:39;;;;;;;5.43;2.22;;;;;;;11.49;100.00;101351.50;5016025;28;20033;-78
2023/04/15 08:44:06;;;;;;;3.38;1.80;;;;;;;11.41;100.00;101355.03;4998444;28;20044;-76
2023/04/15 08:46:36;;;;;;;5.90;2.22;;;;;;;11.49;100.00;101353.38;5015790;28;20029;-77
2023/04/15 08:49:04;;;;;;;5.82;2.80;;;;;;;11.82;100.00;101344.25;4998876;28;20030;-77
2023/04/15 08:51:31;;;;;;;9.40;1.50;;;;;;;11.99;100.00;101346.97;5014770;28;20040;-78
2023/04/15 08:54:01;;;;;;;2.78;1.35;;;;;;;12.00;100.00;101346.78;5014488;28;20034;-78
2023/04/15 08:56:31;;;;;;;2.92;1.52;;;;;;;11.98;100.00;101340.72;5014695;28;20472;-78
2023/04/15 08:58:59;;;;;;;9.90;4.78;;;;;;;12.06;100.00;101348.78;5015755;28;20034;-80
2023/04/15 09:01:26;;;;;;;8.18;4.72;;;;;;;12.16;100.00;101356.69;4998243;28;20037;-79
2023/04/15 09:03:53;;;;;;;8.85;4.10;;;;;;;12.14;100.00;101356.03;5014330;28;20530;-81
2023/04/15 09:06:20;;;;;;;11.05;4.97;;;;;;;12.21;100.00;101353.50;5015503;28;20391;-81
2023/04/15 09:08:49;;;;;;;4.88;2.30;;;;;;;12.36;100.00;101359.00;5014673;28;20040;-81
2023/04/15 09:11:16;;;;;;;5.35;2.78;;;;;;;12.36;100.00;101357.19;4998092;28;20034;-78
2023/04/15 09:13:44;;;;;;;7.78;3.65;;;;;;;12.28;100.00;101354.50;5014255;28;20037;-80
2023/04/15 09:16:12;;;;;;;6.15;2.40;;;;;;;12.41;100.00;101352.09;4997899;28;20036;-77
2023/04/15 09:18:39;;;;;;;10.80;5.20;;;;;;;12.49;100.00;101351.22;5013428;28;20034;-78
2023/04/15 09:21:14;;;;;;;9.75;5.32;;;;;;;12.57;100.00;101334.16;5014045;28;20044;-81
2023/04/15 09:23:53;;;;;;;7.00;2.78;;;;;;;13.09;100.00;101347.06;4997800;28;20472;-79
2023/04/15 09:26:39;;;;;;;6.47;2.28;;;;;;;13.45;100.00;101344.66;5015363;28;20030;-79
2023/04/15 09:29:09;;;;;;;5.85;2.22;;;;;;;13.64;100.00;101344.16;5013585;28;20411;-78
2023/04/15 09:31:36;;;;;;;6.53;1.95;;;;;;;13.75;100.00;101344.75;5013904;28;20030;-78
2023/04/15 09:34:03;;;;;;;11.57;5.70;;;;;;;13.61;100.00;101352.63;5014095;28;20029;-78
2023/04/15 09:36:53;;;;;;;20.55;9.45;;;;;;;13.44;100.00;101345.66;4997598;28;20026;-80
2023/04/15 09:39:20;;;;;;;18.15;7.15;;;;;;;13.28;100.00;101345.78;5014132;28;20030;-79
2023/04/15 09:42:03;;;;;;;32.10;14.75;;;;;;;13.17;100.00;101350.53;5013910;28;20395;-78
2023/04/15 09:44:31;;;;;;;15.50;7.88;;;;;;;13.30;100.00;101347.28;5013236;28;20040;-77
2023/04/15 09:46:58;;;;;;;12.95;6.93;;;;;;;13.63;100.00;101345.19;5013545;28;20476;-77
2023/04/15 09:49:25;;;;;;;9.70;4.45;;;;;;;13.82;100.00;101348.41;5013771;28;20038;-78
2023/04/15 09:51:57;;;;;;;8.55;5.65;;;;;;;14.10;100.00;101353.22;5012445;28;20030;-80
2023/04/15 09:54:24;;;;;;;7.73;4.73;;;;;;;14.39;96.28;101346.97;5013675;28;20038;-79
2023/04/15 09:56:51;;;;;;;8.93;4.05;;;;;;;14.58;95.49;101349.19;5013788;28;20026;-78
2023/04/15 09:59:18;;;;;;;11.95;6.07;;;;;;;14.91;89.27;101340.63;4996395;28;20038;-79
2023/04/15 10:01:45;;;;;;;21.52;10.32;;;;;;;15.06;89.92;101337.88;5013525;28;20037;-78
2023/04/15 10:04:12;;;;;;;21.35;9.68;;;;;;;15.08;86.64;101346.63;5013518;28;20059;-78
2023/04/15 10:06:49;;;;;;;13.50;7.03;;;;;;;15.34;89.54;101343.38;4996811;28;20034;-81
2023/04/15 10:09:16;;;;;;;11.90;7.35;;;;;;;15.85;87.44;101350.53;5013362;28;20037;-78
2023/04/15 10:11:44;;;;;;;18.10;7.57;;;;;;;16.29;82.23;101344.81;5013378;28;20048;-80
2023/04/15 10:14:12;;;;;;;22.15;9.77;;;;;;;16.56;82.79;101359.38;4996802;28;20029;-77
2023/04/15 10:16:41;;;;;;;6.95;2.65;;;;;;;16.80;79.13;101362.66;4997036;28;20491;-79
2023/04/15 10:19:09;;;;;;;16.65;7.43;;;;;;;16.63;79.80;101365.69;4997101;28;20034;-77
2023/04/15 10:21:36;;;;;;;10.02;7.05;;;;;;;16.40;79.58;101363.25;5012458;28;20464;-78
2023/04/15 10:24:03;;;;;;;6.22;3.67;;;;;;;16.32;78.47;101359.88;4996765;28;20048;-80
2023/04/15 10:26:30;;;;;;;8.02;2.75;;;;;;;16.41;77.74;101361.41;5013077;28;20034;-79
2023/04/15 10:28:58;;;;;;;7.47;4.18;;;;;;;16.59;75.06;101375.28;5013561;28;20411;-78
2023/04/15 10:31:25;;;;;;;7.03;3.40;;;;;;;16.50;75.72;101365.63;4996645;28;20048;-79
2023/04/15 10:33:55;;;;;;;6.32;2.67;;;;;;;16.40;75.49;101363.25;5014115;28;20030;-78
2023/04/15 10:36:22;;;;;;;5.05;1.70;;;;;;;16.29;74.07;101368.41;5012547;28;20036;-79
2023/04/15 10:38:48;;;;;;;4.28;1.60;;;;;;;16.06;73.27;101361.34;5012544;28;20029;-79
2023/04/15 10:41:20;;;;;;;5.82;1.40;;;;;;;15.75;74.27;101362.59;4996617;28;20044;-78
2023/04/15 10:43:55;;;;;;;7.45;1.70;;;;;;;15.41;76.05;101359.72;5014000;28;20026;-77
2023/04/15 10:46:38;;;;;;;4.00;1.92;;;;;;;15.13;76.43;101358.56;4996397;28;20042;-79
2023/04/15 10:49:13;;;;;;;8.48;3.22;;;;;;;15.07;76.44;101362.06;4996779;28;20033;-78
2023/04/15 10:51:45;;;;;;;5.35;3.33;;;;;;;15.02;76.40;101358.25;5012789;28;20033;-78
2023/04/15 10:54:30;;;;;;;4.22;1.40;;;;;;;15.00;74.39;101357.59;4995626;28;20035;-82
2023/04/15 10:57:02;;;;;;;5.20;1.40;;;;;;;14.99;72.24;101358.63;5011150;28;20060;-81
2023/04/15 10:59:30;;;;;;;2.97;1.30;;;;;;;14.96;69.28;101346.31;5013669;28;20033;-81
2023/04/15 11:02:06;;;;;;;6.65;2.25;;;;;;;15.24;68.68;101338.31;5012365;28;20037;-77
2023/04/15 11:04:56;;;;;;;2.95;1.70;;;;;;;15.43;64.23;101353.06;5012176;28;20045;-77
2023/04/15 11:07:37;;;;;;;8.05;2.13;;;;;;;15.79;62.88;101339.44;5012132;28;20621;-77
2023/04/15 11:10:16;;;;;;;6.38;2.40;;;;;;;16.31;60.23;101341.91;5012309;28;20044;-78
2023/04/15 11:12:44;;;;;;;5.13;2.35;;;;;;;16.51;59.85;101336.59;5012234;28;20037;-80
2023/04/15 11:15:27;;;;;;;10.35;4.97;;;;;;;17.00;57.49;101330.97;4996037;28;20060;-81
2023/04/15 11:17:56;;;;;;;12.45;8.10;;;;;;;17.06;54.78;101330.16;5013446;28;20041;-78
2023/04/15 11:20:23;;;;;;;3.30;2.08;;;;;;;17.12;53.10;101332.06;5012094;28;20032;-79
2023/04/15 11:22:54;;;;;;;6.38;3.17;;;;;;;17.05;52.39;101331.22;4995930;28;20041;-77
2023/04/15 11:25:26;;;;;;;2.92;1.23;;;;;;;17.14;52.36;101335.41;4979736;28;20060;-79
2023/04/15 11:27:53;;;;;;;4.38;1.85;;;;;;;17.40;51.55;101332.97;4995693;28;20492;-78